Latest Weather Observations for Argyle

IDW60801

Issued at 5:35 pm WST Saturday 29 November 2014 (issued every 30 minutes, with the page automatically refreshed every 10 minutes)

About weather observations | Map of weather stations | Latest weather observations for WA | Other Formats
Station Details ID: 002064 Name: ARGYLE AERODROME Lat: -16.64 Lon: 128.45 Height: 164.0 m
Data from the previous 72 hours. | See also: Recent months at Argyle
Date/Time
WST
Temp
°C
App
Temp
°C
Dew
Point
Rel
Hum
%
Delta-T
°C
Wind Press
QNH
hPa
Press
MSL
hPa
Rain
since 9 am
mm
Dir
 
Spd
km/h
Gust
km/h
Spd
kts
Gust
kts
29/05:30pm 34.8 33.4 21.2 45 9.3 ENE 30 43 16 23 1004.4 - 0.0
29/05:22pm 35.4 34.0 20.5 41 10.1 ENE 28 48 15 26 1004.3 - 0.0
29/05:00pm 37.4 36.7 18.2 32 12.7 NE 19 28 10 15 1004.0 - 0.0
29/04:30pm 38.0 37.7 18.2 31 13.1 NE 17 24 9 13 1003.3 - 0.0
29/04:00pm 39.1 38.9 17.5 28 14.2 NNE 15 20 8 11 1002.8 - 0.0
29/03:30pm 39.4 40.8 17.8 28 14.2 NNW 7 13 4 7 1002.8 - 0.0
29/03:00pm 39.5 40.5 16.9 26 14.8 N 7 17 4 9 1003.0 1001.6 0.0
29/02:30pm 39.5 40.4 16.6 26 14.9 WNW 7 17 4 9 1003.1 - 0.0
29/02:00pm 38.9 39.9 17.7 29 13.9 NNW 9 15 5 8 1003.5 - 0.0
29/01:30pm 38.3 38.3 17.2 29 13.8 NNE 13 20 7 11 1004.0 - 0.0
29/01:00pm 37.7 38.0 18.0 31 13.0 N 13 20 7 11 1004.4 - 0.0
29/12:30pm 38.5 39.4 17.5 29 13.8 ENE 9 13 5 7 1005.0 - 0.0
29/12:00pm 38.1 39.4 18.4 31 13.1 - 9 17 5 9 1005.6 - 0.0
29/11:30am 38.5 38.9 17.3 28 13.9 WNW 11 17 6 9 1006.3 - 0.0
29/11:00am 37.7 38.3 17.8 31 13.1 NW 11 20 6 11 1006.8 - 0.0
29/10:30am 36.4 37.7 19.2 36 11.5 NNW 11 20 6 11 1007.5 - 0.0
29/10:00am 35.8 37.6 19.5 38 10.9 NNW 9 17 5 9 1008.0 - 0.0
29/09:30am 35.2 36.6 19.5 39 10.5 W 11 19 6 10 1008.4 - 0.0
29/09:00am 35.1 35.3 20.1 41 10.1 WNW 19 20 10 11 1008.7 1007.3 0.0
29/08:30am 33.8 35.5 20.2 44 9.1 N 11 15 6 8 1009.1 - 0.0
29/08:00am 33.4 35.1 21.0 48 8.4 NNW 13 19 7 10 1009.4 - 0.0
29/07:30am 33.2 35.6 21.6 50 7.9 N 11 17 6 9 1009.3 - 0.0
29/07:00am 32.5 34.8 21.3 51 7.6 WNW 11 17 6 9 1009.2 - 0.0
29/06:30am 30.9 33.4 21.8 58 6.2 NNW 11 15 6 8 1009.1 - 0.0
29/06:00am 30.4 33.9 22.9 64 5.2 WNW 9 11 5 6 1009.1 1007.7 0.0
29/05:30am 29.4 33.6 23.5 70 4.1 W 7 9 4 5 1008.9 - 0.0
29/05:00am 28.8 33.2 23.8 74 3.5 NW 7 9 4 5 1008.7 - 0.0
29/04:30am 28.7 33.3 23.8 75 3.4 NNW 6 7 3 4 1008.3 - 0.0
29/04:00am 28.7 33.2 23.7 74 3.5 NW 6 7 3 4 1008.0 - 0.0
29/03:30am 28.8 32.9 23.9 75 3.4 NNW 9 11 5 6 1007.8 - 0.0
29/03:00am 29.0 33.0 23.7 73 3.7 NNW 9 13 5 7 1007.6 1006.2 0.0
29/02:30am 29.1 32.6 23.6 72 3.8 NNW 11 13 6 7 1007.6 - 0.0
29/02:00am 29.5 32.5 23.3 69 4.3 N 13 17 7 9 1007.6 - 0.0
29/01:30am 29.7 32.9 23.0 67 4.6 N 11 15 6 8 1007.6 - 0.0
29/01:00am 30.1 33.5 22.7 64 5.1 NW 9 11 5 6 1007.7 - 0.0
29/12:30am 30.1 33.0 22.5 63 5.2 NNW 11 17 6 9 1007.8 - 0.0
29/12:00am 30.2 34.4 23.1 65 4.9 N 6 9 3 5 1008.0 1006.6 0.0
 
Date/Time
WST
Temp
°C
App
Temp
°C
Dew
Point
Rel
Hum
%
Delta-T
°C
Wind Press
QNH
hPa
Press
MSL
hPa
Rain
since 9 am
mm
Dir
 
Spd
km/h
Gust
km/h
Spd
kts
Gust
kts
28/11:30pm 30.4 33.7 22.5 62 5.4 WNW 9 11 5 6 1008.1 - 0.0
28/11:00pm 30.4 33.7 22.5 62 5.4 NW 9 11 5 6 1008.4 - 0.0
28/10:30pm 30.6 34.2 22.4 61 5.6 NW 7 11 4 6 1008.7 - 0.0
28/10:00pm 31.1 34.3 21.7 57 6.4 NNW 7 9 4 5 1009.1 - 0.0
28/09:30pm 31.5 34.4 21.1 54 7.0 N 7 9 4 5 1009.3 - 0.0
28/09:00pm 31.9 34.2 20.7 51 7.5 N 9 11 5 6 1009.3 1007.9 0.0
28/08:30pm 32.3 33.7 19.5 46 8.5 NNW 11 13 6 7 1009.2 - 0.0
28/08:00pm 32.6 34.4 18.7 43 9.1 N 7 11 4 6 1009.0 - 0.0
28/07:30pm 32.2 34.3 19.3 46 8.5 NE 7 11 4 6 1008.6 - 0.0
28/07:00pm 32.7 33.6 18.5 43 9.3 NNE 11 17 6 9 1008.3 - 0.0
28/06:30pm 33.1 34.6 18.0 40 9.8 NE 7 11 4 6 1007.9 - 0.0
28/06:00pm 34.0 34.5 17.5 37 10.7 ENE 11 17 6 9 1007.3 1005.9 0.0
28/05:30pm 35.6 37.1 17.5 34 11.8 E 6 7 3 4 1006.9 - 0.0
28/05:00pm 36.6 38.0 16.4 30 13.0 ESE 4 9 2 5 1006.7 - 0.0
28/04:30pm 36.7 38.0 17.2 31 12.7 WNW 6 11 3 6 1006.5 - 0.0
28/04:00pm 36.5 37.3 15.8 29 13.2 N 6 9 3 5 1006.3 - 0.0
28/03:30pm 36.5 36.9 15.2 28 13.4 SE 7 11 4 6 1006.4 - 0.0
28/03:00pm 36.5 38.0 17.5 32 12.4 SSE 6 11 3 6 1006.7 1005.3 0.0
28/02:30pm 36.3 37.3 17.8 33 12.1 S 9 17 5 9 1007.0 - 0.0
28/02:00pm 35.5 37.4 18.9 37 11.0 S 7 11 4 6 1007.5 - 0.0
28/01:30pm 35.8 38.1 19.5 38 10.9 WNW 6 11 3 6 1008.2 - 0.0
28/01:00pm 34.4 36.1 19.4 41 10.0 NNE 9 17 5 9 1008.6 - 0.0
28/12:30pm 33.2 35.4 19.5 44 9.1 N 7 15 4 8 1009.0 - 0.0
28/12:00pm 33.1 35.7 20.1 46 8.7 NNW 6 13 3 7 1009.5 1008.1 0.0
28/11:30am 32.6 34.4 19.6 46 8.6 SE 9 17 5 9 1010.1 - 0.0
28/11:00am 31.4 32.7 20.1 51 7.5 ENE 13 22 7 12 1010.5 - 0.0
28/10:30am 31.8 34.2 20.8 52 7.4 SE 9 15 5 8 1011.0 - 0.0
28/10:00am 30.7 33.6 21.0 56 6.5 ENE 7 13 4 7 1011.5 - 0.0
28/09:30am 30.0 31.6 20.7 57 6.2 ESE 13 20 7 11 1011.8 - 0.0
28/09:00am 28.9 31.4 21.0 62 5.3 ESE 9 15 5 8 1011.9 1010.6 1.4
28/08:30am 28.3 31.7 21.0 64 4.9 S 4 9 2 5 1012.1 - 1.4
28/08:00am 27.1 30.1 20.8 68 4.2 E 6 7 3 4 1012.5 - 1.4
28/07:30am 26.4 30.3 21.1 72 3.5 E 2 6 1 3 1012.2 - 1.4
28/07:00am 25.8 29.3 21.8 78 2.7 NE 6 9 3 5 1012.0 - 1.4
28/06:30am 25.5 29.0 22.2 82 2.2 E 7 11 4 6 1011.6 - 1.4
28/06:00am 25.5 30.2 21.9 80 2.4 CALM 0 0 0 0 1011.5 1010.2 1.4
28/05:30am 25.2 29.1 21.9 82 2.2 ESE 4 9 2 5 1011.5 - 1.4
28/05:00am 24.9 27.9 21.9 83 2.0 SE 9 13 5 7 1011.6 - 1.4
28/04:30am 24.8 27.9 22.1 85 1.8 SE 9 15 5 8 1011.1 - 1.4
28/04:00am 24.8 28.6 22.7 88 1.4 SE 7 11 4 6 1010.8 - 1.4
28/03:30am 24.9 27.8 21.8 83 2.1 SSE 9 11 5 6 1010.2 - 1.4
28/03:00am 24.9 28.7 22.4 86 1.7 E 6 7 3 4 1009.5 1008.1 1.4
28/02:30am 24.9 29.9 22.5 86 1.6 CALM 0 0 0 0 1009.1 - 1.4
28/02:00am 24.8 29.0 21.8 83 2.0 ENE 2 6 1 3 1008.9 - 1.4
28/01:30am 24.5 28.1 22.3 87 1.5 ESE 7 9 4 5 1009.7 - 1.4
28/01:00am 24.2 26.9 22.1 88 1.4 ESE 11 15 6 8 1010.3 - 1.4
28/12:30am 24.3 27.2 22.4 89 1.3 ESE 11 15 6 8 1011.1 - 1.4
28/12:00am 25.1 27.8 22.1 83 2.0 SSE 11 15 6 8 1011.9 1010.6 0.4
 
Date/Time
WST
Temp
°C
App
Temp
°C
Dew
Point
Rel
Hum
%
Delta-T
°C
Wind Press
QNH
hPa
Press
MSL
hPa
Rain
since 9 am
mm
Dir
 
Spd
km/h
Gust
km/h
Spd
kts
Gust
kts
27/11:30pm 26.8 28.8 21.6 73 3.5 S 13 20 7 11 1012.5 - 0.0
27/11:00pm 27.2 28.6 21.0 69 4.1 S 15 26 8 14 1012.6 - 0.0
27/10:30pm 27.8 29.8 21.6 69 4.2 S 13 24 7 13 1012.5 - 0.0
27/10:00pm 27.9 28.5 21.3 67 4.4 SSW 20 32 11 17 1012.4 - 0.0
27/09:30pm 27.9 28.0 20.3 63 5.0 SSW 20 32 11 17 1012.5 - 0.0
27/09:00pm 27.6 28.4 20.7 66 4.6 S 17 24 9 13 1011.6 1010.3 0.0
27/08:30pm 28.2 30.6 21.5 67 4.5 S 11 20 6 11 1011.1 - 0.0
27/08:00pm 28.4 31.0 21.9 68 4.4 S 11 17 6 9 1010.4 - 0.0
27/07:30pm 29.4 33.1 22.5 66 4.7 S 7 13 4 7 1009.7 - 0.0
27/07:00pm 31.2 33.6 20.8 54 7.0 WNW 9 11 5 6 1009.4 - 0.0
27/06:30pm 31.3 33.6 20.7 53 7.1 WNW 9 13 5 7 1009.3 - 0.0
27/06:00pm 31.8 33.3 19.7 48 8.0 NW 11 17 6 9 1008.8 1007.4 0.0
27/05:30pm 32.1 32.7 18.7 45 8.8 NNW 13 19 7 10 1008.4 - 0.0
27/05:00pm 32.4 31.7 18.7 44 9.0 N 20 26 11 14 1007.8 - 0.0
27/04:30pm 32.3 32.1 19.3 46 8.6 NNW 19 24 10 13 1007.6 - 0.0
27/04:00pm 32.1 31.0 19.4 47 8.4 N 24 33 13 18 1007.5 - 0.0
27/03:30pm 32.3 30.6 19.8 47 8.3 N 28 39 15 21 1007.4 - 0.0
27/03:00pm 35.1 34.3 18.4 37 11.0 ENE 20 35 11 19 1006.9 1005.5 0.0
27/02:30pm 36.1 35.6 19.1 36 11.3 NNE 20 28 11 15 1006.8 - 0.0
27/02:00pm 37.2 36.6 18.9 34 12.2 ENE 20 30 11 16 1006.9 - 0.0
27/01:30pm 36.3 35.6 18.2 34 11.9 ENE 19 28 10 15 1007.5 - 0.0
27/01:00pm 35.9 35.6 19.1 37 11.2 NNE 19 26 10 14 1007.9 - 0.0
27/12:30pm 35.4 35.0 18.8 37 11.0 ENE 19 35 10 19 1008.4 - 0.0
27/12:00pm 35.9 35.7 19.4 38 11.0 E 19 28 10 15 1008.9 1007.5 0.0
27/11:30am 34.9 35.0 19.1 39 10.5 NNE 17 26 9 14 1009.5 - 0.0
27/11:00am 34.9 35.1 19.4 40 10.3 NE 17 24 9 13 1010.0 - 0.0
27/10:30am 33.7 33.1 19.8 44 9.3 NE 22 32 12 17 1010.5 - 0.0
27/10:00am 32.7 32.7 20.1 47 8.4 N 20 26 11 14 1010.7 - 0.0
27/09:30am 33.1 34.5 21.0 49 8.2 NE 15 26 8 14 1011.2 - 0.0
27/09:00am 32.8 32.9 20.3 47 8.4 NNE 20 28 11 15 1011.1 1009.7 0.0
27/08:30am 32.5 33.2 20.4 49 8.1 E 17 26 9 14 1011.3 - 0.0
27/08:00am 32.1 33.5 20.3 49 7.9 ENE 13 20 7 11 1011.3 - 0.0
27/07:30am 31.5 34.0 21.1 54 7.0 E 9 15 5 8 1011.1 - 0.0
27/07:00am 30.9 34.4 21.8 58 6.2 ESE 6 11 3 6 1011.0 - 0.0
27/06:30am 29.2 32.9 22.6 67 4.5 E 7 9 4 5 1011.0 - 0.0
27/06:00am 28.0 32.4 23.8 78 2.9 E 7 9 4 5 1010.7 1009.3 0.0
27/05:39am 27.7 32.0 23.7 79 2.8 E 7 11 4 6 1010.3 - 0.0
27/05:30am 27.7 32.2 23.7 79 2.8 E 6 9 3 5 1010.1 - 0.0
27/05:00am 27.7 31.9 23.2 76 3.1 SSE 6 11 3 6 1009.6 - 0.0
27/04:30am 27.4 31.2 23.5 79 2.7 S 9 13 5 7 1009.4 - 0.0
27/04:00am 27.0 32.1 24.7 87 1.6 SE 6 7 3 4 1009.1 - 0.0
27/03:30am 27.2 32.3 24.6 86 1.8 SE 6 9 3 5 1008.8 - 0.0
27/03:00am 27.4 32.3 24.4 84 2.1 E 6 6 3 3 1008.5 1007.1 0.0
27/02:30am 27.9 32.3 23.4 76 3.1 SSE 6 9 3 5 1008.7 - 0.0
27/02:00am 28.1 33.5 23.3 75 3.3 CALM 0 0 0 0 1008.7 - 0.0
27/01:30am 28.1 32.4 23.3 75 3.3 SE 6 6 3 3 1008.5 - 0.0
27/01:00am 28.5 33.8 23.0 72 3.8 CALM 0 0 0 0 1008.5 - 0.0
27/12:30am 28.2 33.1 23.1 74 3.5 SSW 2 7 1 4 1008.8 - 0.0
27/12:00am 28.2 32.4 23.1 74 3.5 WSW 6 7 3 4 1009.0 1007.6 0.0
 
Date/Time
WST
Temp
°C
App
Temp
°C
Dew
Point
Rel
Hum
%
Delta-T
°C
Wind Press
QNH
hPa
Press
MSL
hPa
Rain
since 9 am
mm
Dir
 
Spd
km/h
Gust
km/h
Spd
kts
Gust
kts
26/11:30pm 28.0 33.4 23.2 75 3.3 CALM 0 0 0 0 1009.3 - 0.0
26/11:00pm 28.1 32.4 22.7 72 3.7 S 4 6 2 3 1009.4 - 0.0
26/10:30pm 28.0 31.9 23.0 74 3.4 ESE 7 9 4 5 1009.6 - 0.0
26/10:00pm 28.2 31.4 23.1 74 3.5 ENE 11 17 6 9 1009.9 - 0.0
26/09:30pm 28.9 33.0 23.2 71 3.9 E 7 9 4 5 1009.8 - 0.0
26/09:00pm 29.4 33.5 22.2 65 4.9 WNW 4 7 2 4 1009.5 1008.1 0.0
26/08:30pm 29.5 33.0 22.2 65 5.0 NW 7 9 4 5 1009.3 - 0.0
26/08:00pm 29.5 32.8 21.8 63 5.2 WSW 7 9 4 5 1009.2 - 0.0
26/07:30pm 29.3 32.4 22.1 65 4.9 NNW 9 11 5 6 1009.1 - 0.0
26/07:00pm 29.4 32.7 21.4 62 5.4 N 6 7 3 4 1009.0 - 0.0
26/06:30pm 29.5 32.0 21.0 60 5.7 NE 9 13 5 7 1008.4 - 0.0
26/06:00pm 29.6 31.8 21.1 60 5.7 E 11 17 6 9 1007.8 1006.4 0.0

Other Formats:

Comma delimited format used in spreadsheet applications
http://www.bom.gov.au/fwo/IDW60801/IDW60801.94217.axf

JavaScript Object Notation format (JSON) in row-major order
http://www.bom.gov.au/fwo/IDW60801/IDW60801.94217.json